sensor_id;sensor_type;location;lat;lon;timestamp;P1;durP1;ratioP1;P2;durP2;ratioP2
45252;SDS011;63171;50.520;30.486;2022-10-26T00:02:41;8.45;;;7.70;;
45252;SDS011;63171;50.520;30.486;2022-10-26T00:03:32;9.32;;;7.50;;
45252;SDS011;63171;50.520;30.486;2022-10-26T00:04:23;9.07;;;8.05;;
45252;SDS011;63171;50.520;30.486;2022-10-26T00:05:14;7.88;;;7.10;;
45252;SDS011;63171;50.520;30.486;2022-10-26T00:06:05;9.82;;;8.82;;
45252;SDS011;63171;50.520;30.486;2022-10-26T00:06:57;9.18;;;8.27;;
45252;SDS011;63171;50.520;30.486;2022-10-26T00:07:47;9.82;;;8.93;;
45252;SDS011;63171;50.520;30.486;2022-10-26T00:08:38;9.95;;;8.93;;
45252;SDS011;63171;50.520;30.486;2022-10-26T00:09:28;11.63;;;9.77;;
45252;SDS011;63171;50.520;30.486;2022-10-26T00:10:20;9.52;;;8.73;;
45252;SDS011;63171;50.520;30.486;2022-10-26T00:11:10;10.57;;;9.48;;
45252;SDS011;63171;50.520;30.486;2022-10-26T00:12:02;10.27;;;8.63;;
45252;SDS011;63171;50.520;30.486;2022-10-26T00:12:52;9.88;;;8.98;;
45252;SDS011;63171;50.520;30.486;2022-10-26T00:13:43;10.13;;;9.13;;
45252;SDS011;63171;50.520;30.486;2022-10-26T00:14:33;11.55;;;10.10;;
45252;SDS011;63171;50.520;30.486;2022-10-26T00:15:25;10.43;;;9.15;;
45252;SDS011;63171;50.520;30.486;2022-10-26T00:16:15;12.07;;;10.70;;
45252;SDS011;63171;50.520;30.486;2022-10-26T00:17:08;11.05;;;9.90;;
45252;SDS011;63171;50.520;30.486;2022-10-26T00:17:57;9.02;;;8.23;;
45252;SDS011;63171;50.520;30.486;2022-10-26T00:18:48;12.70;;;10.00;;
45252;SDS011;63171;50.520;30.486;2022-10-26T00:19:39;10.93;;;9.18;;
45252;SDS011;63171;50.520;30.486;2022-10-26T00:20:30;10.35;;;9.45;;
45252;SDS011;63171;50.520;30.486;2022-10-26T00:21:20;10.88;;;9.77;;
45252;SDS011;63171;50.520;30.486;2022-10-26T00:22:11;11.98;;;10.77;;
45252;SDS011;63171;50.520;30.486;2022-10-26T00:23:01;11.48;;;10.38;;
45252;SDS011;63171;50.520;30.486;2022-10-26T00:23:51;12.10;;;11.00;;
45252;SDS011;63171;50.520;30.486;2022-10-26T00:24:42;12.07;;;10.85;;
45252;SDS011;63171;50.520;30.486;2022-10-26T00:25:34;11.45;;;10.35;;
45252;SDS011;63171;50.520;30.486;2022-10-26T00:26:24;14.02;;;11.30;;
45252;SDS011;63171;50.520;30.486;2022-10-26T00:27:14;12.30;;;11.15;;
45252;SDS011;63171;50.520;30.486;2022-10-26T00:28:05;12.75;;;10.98;;
45252;SDS011;63171;50.520;30.486;2022-10-26T00:28:55;10.63;;;9.63;;
45252;SDS011;63171;50.520;30.486;2022-10-26T00:29:46;11.98;;;10.43;;
45252;SDS011;63171;50.520;30.486;2022-10-26T00:30:37;11.80;;;10.73;;
45252;SDS011;63171;50.520;30.486;2022-10-26T00:31:28;13.27;;;12.07;;
45252;SDS011;63171;50.520;30.486;2022-10-26T00:32:18;14.10;;;12.82;;
45252;SDS011;63171;50.520;30.486;2022-10-26T00:33:09;12.20;;;11.05;;
45252;SDS011;63171;50.520;30.486;2022-10-26T00:34:01;14.63;;;12.90;;
45252;SDS011;63171;50.520;30.486;2022-10-26T00:34:52;11.48;;;10.43;;
45252;SDS011;63171;50.520;30.486;2022-10-26T00:35:42;13.15;;;11.75;;
45252;SDS011;63171;50.520;30.486;2022-10-26T00:36:32;14.18;;;12.77;;
45252;SDS011;63171;50.520;30.486;2022-10-26T00:37:23;14.05;;;12.15;;
45252;SDS011;63171;50.520;30.486;2022-10-26T00:38:13;13.57;;;12.27;;
45252;SDS011;63171;50.520;30.486;2022-10-26T00:39:03;14.80;;;13.32;;
45252;SDS011;63171;50.520;30.486;2022-10-26T00:39:53;13.98;;;12.50;;
45252;SDS011;63171;50.520;30.486;2022-10-26T00:40:46;15.02;;;13.35;;
45252;SDS011;63171;50.520;30.486;2022-10-26T00:41:36;14.52;;;13.13;;
45252;SDS011;63171;50.520;30.486;2022-10-26T00:42:26;14.48;;;13.07;;
45252;SDS011;63171;50.520;30.486;2022-10-26T00:44:43;13.95;;;12.63;;
45252;SDS011;63171;50.520;30.486;2022-10-26T00:45:49;17.52;;;13.57;;
45252;SDS011;63171;50.520;30.486;2022-10-26T00:46:41;20.67;;;14.02;;
45252;SDS011;63171;50.520;30.486;2022-10-26T00:48:26;14.52;;;13.13;;
45252;SDS011;63171;50.520;30.486;2022-10-26T00:49:18;15.02;;;13.35;;
45252;SDS011;63171;50.520;30.486;2022-10-26T00:50:18;14.25;;;12.82;;
45252;SDS011;63171;50.520;30.486;2022-10-26T00:51:12;14.60;;;13.00;;
45252;SDS011;63171;50.520;30.486;2022-10-26T00:52:07;15.02;;;13.65;;
45252;SDS011;63171;50.520;30.486;2022-10-26T00:53:51;13.70;;;12.32;;
45252;SDS011;63171;50.520;30.486;2022-10-26T00:54:43;14.85;;;13.43;;
45252;SDS011;63171;50.520;30.486;2022-10-26T00:55:34;13.25;;;12.05;;
45252;SDS011;63171;50.520;30.486;2022-10-26T00:56:28;13.32;;;12.18;;
45252;SDS011;63171;50.520;30.486;2022-10-26T00:57:21;14.07;;;12.75;;
45252;SDS011;63171;50.520;30.486;2022-10-26T00:58:11;14.00;;;12.60;;
45252;SDS011;63171;50.520;30.486;2022-10-26T00:59:04;12.80;;;11.60;;
45252;SDS011;63171;50.520;30.486;2022-10-26T00:59:57;13.82;;;12.55;;
45252;SDS011;63171;50.520;30.486;2022-10-26T01:00:49;13.15;;;11.85;;
45252;SDS011;63171;50.520;30.486;2022-10-26T01:01:41;14.05;;;11.00;;
45252;SDS011;63171;50.520;30.486;2022-10-26T01:02:34;12.07;;;11.05;;
45252;SDS011;63171;50.520;30.486;2022-10-26T01:03:24;12.60;;;11.30;;
45252;SDS011;63171;50.520;30.486;2022-10-26T01:04:16;12.20;;;11.00;;
45252;SDS011;63171;50.520;30.486;2022-10-26T01:05:08;11.70;;;10.55;;
45252;SDS011;63171;50.520;30.486;2022-10-26T01:05:59;11.23;;;10.20;;
45252;SDS011;63171;50.520;30.486;2022-10-26T01:06:52;13.93;;;12.02;;
45252;SDS011;63171;50.520;30.486;2022-10-26T01:07:42;11.52;;;10.40;;
45252;SDS011;63171;50.520;30.486;2022-10-26T01:08:35;10.50;;;9.60;;
45252;SDS011;63171;50.520;30.486;2022-10-26T01:09:25;13.05;;;8.90;;
45252;SDS011;63171;50.520;30.486;2022-10-26T01:10:16;10.73;;;9.73;;
45252;SDS011;63171;50.520;30.486;2022-10-26T01:11:07;10.70;;;9.80;;
45252;SDS011;63171;50.520;30.486;2022-10-26T01:11:59;10.32;;;9.43;;
45252;SDS011;63171;50.520;30.486;2022-10-26T01:12:49;10.95;;;9.95;;
45252;SDS011;63171;50.520;30.486;2022-10-26T01:13:40;9.25;;;8.43;;
45252;SDS011;63171;50.520;30.486;2022-10-26T01:14:32;9.05;;;8.15;;
45252;SDS011;63171;50.520;30.486;2022-10-26T01:15:23;10.35;;;9.35;;
45252;SDS011;63171;50.520;30.486;2022-10-26T01:16:25;9.95;;;9.15;;
45252;SDS011;63171;50.520;30.486;2022-10-26T01:17:28;9.05;;;8.00;;
45252;SDS011;63171;50.520;30.486;2022-10-26T01:18:33;10.35;;;9.40;;
45252;SDS011;63171;50.520;30.486;2022-10-26T01:19:37;9.13;;;8.23;;
45252;SDS011;63171;50.520;30.486;2022-10-26T01:20:53;10.65;;;9.65;;
45252;SDS011;63171;50.520;30.486;2022-10-26T01:22:03;11.15;;;9.98;;
45252;SDS011;63171;50.520;30.486;2022-10-26T01:22:58;9.95;;;8.73;;
45252;SDS011;63171;50.520;30.486;2022-10-26T01:23:58;9.95;;;9.05;;
45252;SDS011;63171;50.520;30.486;2022-10-26T01:25:12;10.63;;;9.02;;
45252;SDS011;63171;50.520;30.486;2022-10-26T01:26:16;12.05;;;9.23;;
45252;SDS011;63171;50.520;30.486;2022-10-26T01:27:33;9.70;;;8.73;;
45252;SDS011;63171;50.520;30.486;2022-10-26T01:28:30;10.10;;;9.23;;
45252;SDS011;63171;50.520;30.486;2022-10-26T01:30:53;10.43;;;9.40;;
45252;SDS011;63171;50.520;30.486;2022-10-26T01:31:48;9.55;;;8.55;;
45252;SDS011;63171;50.520;30.486;2022-10-26T01:32:45;9.40;;;8.50;;
45252;SDS011;63171;50.520;30.486;2022-10-26T01:33:44;9.88;;;8.98;;
45252;SDS011;63171;50.520;30.486;2022-10-26T01:34:40;10.00;;;8.65;;
45252;SDS011;63171;50.520;30.486;2022-10-26T01:35:37;11.05;;;9.10;;
45252;SDS011;63171;50.520;30.486;2022-10-26T01:36:32;10.52;;;9.52;;
45252;SDS011;63171;50.520;30.486;2022-10-26T01:37:29;10.45;;;8.73;;
45252;SDS011;63171;50.520;30.486;2022-10-26T01:38:25;10.88;;;9.40;;
45252;SDS011;63171;50.520;30.486;2022-10-26T01:39:26;9.90;;;9.00;;
45252;SDS011;63171;50.520;30.486;2022-10-26T01:40:19;10.30;;;9.30;;
45252;SDS011;63171;50.520;30.486;2022-10-26T01:41:19;10.07;;;9.00;;
45252;SDS011;63171;50.520;30.486;2022-10-26T01:42:15;9.82;;;8.70;;
45252;SDS011;63171;50.520;30.486;2022-10-26T01:43:08;9.43;;;8.50;;
45252;SDS011;63171;50.520;30.486;2022-10-26T01:44:01;9.85;;;8.85;;
45252;SDS011;63171;50.520;30.486;2022-10-26T01:44:57;10.10;;;8.70;;
45252;SDS011;63171;50.520;30.486;2022-10-26T01:45:51;10.18;;;9.27;;
45252;SDS011;63171;50.520;30.486;2022-10-26T01:46:45;11.10;;;9.63;;
45252;SDS011;63171;50.520;30.486;2022-10-26T01:47:37;12.23;;;8.88;;
45252;SDS011;63171;50.520;30.486;2022-10-26T01:48:29;9.88;;;8.82;;
45252;SDS011;63171;50.520;30.486;2022-10-26T01:49:22;9.77;;;8.85;;
45252;SDS011;63171;50.520;30.486;2022-10-26T01:50:16;8.98;;;8.18;;
45252;SDS011;63171;50.520;30.486;2022-10-26T01:51:08;10.15;;;9.05;;
45252;SDS011;63171;50.520;30.486;2022-10-26T01:52:02;9.52;;;8.68;;
45252;SDS011;63171;50.520;30.486;2022-10-26T01:52:53;10.48;;;9.48;;
45252;SDS011;63171;50.520;30.486;2022-10-26T01:53:44;11.90;;;9.05;;
45252;SDS011;63171;50.520;30.486;2022-10-26T01:54:34;12.82;;;8.70;;
45252;SDS011;63171;50.520;30.486;2022-10-26T01:55:39;9.38;;;8.48;;
45252;SDS011;63171;50.520;30.486;2022-10-26T01:56:35;14.90;;;9.73;;
45252;SDS011;63171;50.520;30.486;2022-10-26T01:57:29;10.40;;;9.38;;
45252;SDS011;63171;50.520;30.486;2022-10-26T01:59:46;9.63;;;8.68;;
45252;SDS011;63171;50.520;30.486;2022-10-26T02:00:48;10.70;;;9.70;;
45252;SDS011;63171;50.520;30.486;2022-10-26T02:01:55;10.13;;;9.13;;
45252;SDS011;63171;50.520;30.486;2022-10-26T02:03:05;10.40;;;9.30;;
45252;SDS011;63171;50.520;30.486;2022-10-26T02:04:06;10.45;;;8.65;;
45252;SDS011;63171;50.520;30.486;2022-10-26T02:06:30;10.40;;;9.13;;
45252;SDS011;63171;50.520;30.486;2022-10-26T02:07:30;10.38;;;9.27;;
45252;SDS011;63171;50.520;30.486;2022-10-26T02:08:33;10.00;;;9.05;;
45252;SDS011;63171;50.520;30.486;2022-10-26T02:09:40;10.55;;;9.40;;
45252;SDS011;63171;50.520;30.486;2022-10-26T02:10:45;9.63;;;8.77;;
45252;SDS011;63171;50.520;30.486;2022-10-26T02:11:40;9.98;;;8.30;;
45252;SDS011;63171;50.520;30.486;2022-10-26T02:12:37;10.05;;;9.05;;
45252;SDS011;63171;50.520;30.486;2022-10-26T02:13:37;10.60;;;8.50;;
45252;SDS011;63171;50.520;30.486;2022-10-26T02:14:32;11.10;;;8.85;;
45252;SDS011;63171;50.520;30.486;2022-10-26T02:15:32;10.45;;;9.35;;
45252;SDS011;63171;50.520;30.486;2022-10-26T02:16:28;9.70;;;8.70;;
45252;SDS011;63171;50.520;30.486;2022-10-26T02:17:27;10.85;;;9.80;;
45252;SDS011;63171;50.520;30.486;2022-10-26T02:18:26;9.68;;;8.77;;
45252;SDS011;63171;50.520;30.486;2022-10-26T02:19:23;8.93;;;8.02;;
45252;SDS011;63171;50.520;30.486;2022-10-26T02:20:22;9.30;;;8.40;;
45252;SDS011;63171;50.520;30.486;2022-10-26T02:21:16;9.10;;;8.30;;
45252;SDS011;63171;50.520;30.486;2022-10-26T02:22:12;11.05;;;10.05;;
45252;SDS011;63171;50.520;30.486;2022-10-26T02:23:05;9.60;;;8.60;;
45252;SDS011;63171;50.520;30.486;2022-10-26T02:23:57;9.40;;;8.50;;
45252;SDS011;63171;50.520;30.486;2022-10-26T02:24:48;9.18;;;8.27;;
45252;SDS011;63171;50.520;30.486;2022-10-26T02:25:43;9.02;;;8.13;;
45252;SDS011;63171;50.520;30.486;2022-10-26T02:26:36;9.65;;;8.73;;
45252;SDS011;63171;50.520;30.486;2022-10-26T02:27:30;9.43;;;8.52;;
45252;SDS011;63171;50.520;30.486;2022-10-26T02:28:26;9.35;;;8.45;;
45252;SDS011;63171;50.520;30.486;2022-10-26T02:29:20;10.15;;;9.15;;
45252;SDS011;63171;50.520;30.486;2022-10-26T02:30:12;10.18;;;9.18;;
45252;SDS011;63171;50.520;30.486;2022-10-26T02:31:04;10.30;;;8.80;;
45252;SDS011;63171;50.520;30.486;2022-10-26T02:31:55;10.20;;;8.98;;
45252;SDS011;63171;50.520;30.486;2022-10-26T02:32:50;9.30;;;8.50;;
45252;SDS011;63171;50.520;30.486;2022-10-26T02:33:44;9.00;;;8.10;;
45252;SDS011;63171;50.520;30.486;2022-10-26T02:34:38;11.43;;;8.98;;
45252;SDS011;63171;50.520;30.486;2022-10-26T02:35:32;12.10;;;10.15;;
45252;SDS011;63171;50.520;30.486;2022-10-26T02:36:27;10.40;;;8.35;;
45252;SDS011;63171;50.520;30.486;2022-10-26T02:37:20;10.98;;;9.40;;
45252;SDS011;63171;50.520;30.486;2022-10-26T02:38:13;10.10;;;9.18;;
45252;SDS011;63171;50.520;30.486;2022-10-26T02:39:06;9.45;;;8.57;;
45252;SDS011;63171;50.520;30.486;2022-10-26T02:39:59;8.90;;;8.10;;
45252;SDS011;63171;50.520;30.486;2022-10-26T02:40:53;9.80;;;8.90;;
45252;SDS011;63171;50.520;30.486;2022-10-26T02:41:45;9.40;;;8.23;;
45252;SDS011;63171;50.520;30.486;2022-10-26T02:42:37;10.68;;;7.82;;
45252;SDS011;63171;50.520;30.486;2022-10-26T02:43:31;13.38;;;10.25;;
45252;SDS011;63171;50.520;30.486;2022-10-26T02:44:29;9.35;;;8.45;;
45252;SDS011;63171;50.520;30.486;2022-10-26T02:45:25;8.82;;;7.93;;
45252;SDS011;63171;50.520;30.486;2022-10-26T02:46:19;10.25;;;8.05;;
45252;SDS011;63171;50.520;30.486;2022-10-26T02:47:14;10.57;;;8.57;;
45252;SDS011;63171;50.520;30.486;2022-10-26T02:48:06;11.48;;;8.13;;
45252;SDS011;63171;50.520;30.486;2022-10-26T02:48:57;11.20;;;8.50;;
45252;SDS011;63171;50.520;30.486;2022-10-26T02:49:47;13.20;;;9.43;;
45252;SDS011;63171;50.520;30.486;2022-10-26T02:50:40;9.98;;;9.07;;
45252;SDS011;63171;50.520;30.486;2022-10-26T02:51:38;11.52;;;10.35;;
45252;SDS011;63171;50.520;30.486;2022-10-26T02:52:33;10.65;;;9.50;;
45252;SDS011;63171;50.520;30.486;2022-10-26T02:53:33;11.45;;;9.00;;
45252;SDS011;63171;50.520;30.486;2022-10-26T02:54:29;10.73;;;9.48;;
45252;SDS011;63171;50.520;30.486;2022-10-26T02:55:26;9.38;;;8.48;;
45252;SDS011;63171;50.520;30.486;2022-10-26T02:56:21;10.68;;;9.57;;
45252;SDS011;63171;50.520;30.486;2022-10-26T02:57:17;11.45;;;9.68;;
45252;SDS011;63171;50.520;30.486;2022-10-26T02:58:10;15.60;;;10.18;;
45252;SDS011;63171;50.520;30.486;2022-10-26T02:59:05;10.40;;;9.23;;
45252;SDS011;63171;50.520;30.486;2022-10-26T02:59:58;9.07;;;8.23;;
45252;SDS011;63171;50.520;30.486;2022-10-26T03:00:50;10.60;;;9.27;;
45252;SDS011;63171;50.520;30.486;2022-10-26T03:01:42;10.32;;;9.43;;
45252;SDS011;63171;50.520;30.486;2022-10-26T03:02:33;9.75;;;8.75;;
45252;SDS011;63171;50.520;30.486;2022-10-26T03:03:25;9.75;;;8.80;;
45252;SDS011;63171;50.520;30.486;2022-10-26T03:04:16;9.63;;;8.63;;
45252;SDS011;63171;50.520;30.486;2022-10-26T03:05:08;9.98;;;8.98;;
45252;SDS011;63171;50.520;30.486;2022-10-26T03:06:02;10.63;;;9.60;;
45252;SDS011;63171;50.520;30.486;2022-10-26T03:06:53;9.77;;;8.88;;
45252;SDS011;63171;50.520;30.486;2022-10-26T03:07:44;11.15;;;10.25;;
45252;SDS011;63171;50.520;30.486;2022-10-26T03:08:35;9.35;;;8.40;;
45252;SDS011;63171;50.520;30.486;2022-10-26T03:09:25;11.70;;;10.00;;
45252;SDS011;63171;50.520;30.486;2022-10-26T03:10:16;10.75;;;9.73;;
45252;SDS011;63171;50.520;30.486;2022-10-26T03:11:06;10.35;;;9.10;;
45252;SDS011;63171;50.520;30.486;2022-10-26T03:11:57;11.00;;;9.48;;
45252;SDS011;63171;50.520;30.486;2022-10-26T03:12:47;10.90;;;9.57;;
45252;SDS011;63171;50.520;30.486;2022-10-26T03:13:37;10.10;;;9.05;;
45252;SDS011;63171;50.520;30.486;2022-10-26T03:14:28;10.07;;;9.15;;
45252;SDS011;63171;50.520;30.486;2022-10-26T03:15:18;11.70;;;9.65;;
45252;SDS011;63171;50.520;30.486;2022-10-26T03:16:08;11.60;;;10.50;;
45252;SDS011;63171;50.520;30.486;2022-10-26T03:16:59;9.88;;;8.88;;
45252;SDS011;63171;50.520;30.486;2022-10-26T03:17:49;13.30;;;10.40;;
45252;SDS011;63171;50.520;30.486;2022-10-26T03:18:42;10.52;;;9.40;;
45252;SDS011;63171;50.520;30.486;2022-10-26T03:19:32;10.10;;;9.18;;
45252;SDS011;63171;50.520;30.486;2022-10-26T03:20:22;10.30;;;9.25;;
45252;SDS011;63171;50.520;30.486;2022-10-26T03:21:12;13.68;;;11.27;;
45252;SDS011;63171;50.520;30.486;2022-10-26T03:22:03;11.52;;;10.43;;
45252;SDS011;63171;50.520;30.486;2022-10-26T03:22:53;11.57;;;10.48;;
45252;SDS011;63171;50.520;30.486;2022-10-26T03:23:45;11.48;;;10.27;;
45252;SDS011;63171;50.520;30.486;2022-10-26T03:24:36;12.80;;;9.85;;
45252;SDS011;63171;50.520;30.486;2022-10-26T03:25:27;15.23;;;10.52;;
45252;SDS011;63171;50.520;30.486;2022-10-26T03:26:16;11.52;;;9.82;;
45252;SDS011;63171;50.520;30.486;2022-10-26T03:27:07;11.10;;;10.00;;
45252;SDS011;63171;50.520;30.486;2022-10-26T03:27:58;14.18;;;10.32;;
45252;SDS011;63171;50.520;30.486;2022-10-26T03:28:49;12.65;;;10.68;;
45252;SDS011;63171;50.520;30.486;2022-10-26T03:29:39;10.50;;;9.50;;
45252;SDS011;63171;50.520;30.486;2022-10-26T03:30:30;12.65;;;11.35;;
45252;SDS011;63171;50.520;30.486;2022-10-26T03:31:20;12.80;;;10.85;;
45252;SDS011;63171;50.520;30.486;2022-10-26T03:32:10;11.80;;;10.18;;
45252;SDS011;63171;50.520;30.486;2022-10-26T03:33:00;14.57;;;10.38;;
45252;SDS011;63171;50.520;30.486;2022-10-26T03:33:52;15.55;;;11.05;;
45252;SDS011;63171;50.520;30.486;2022-10-26T03:34:43;12.02;;;9.98;;
45252;SDS011;63171;50.520;30.486;2022-10-26T03:35:34;10.50;;;9.40;;
45252;SDS011;63171;50.520;30.486;2022-10-26T03:36:24;12.18;;;10.65;;
45252;SDS011;63171;50.520;30.486;2022-10-26T03:37:14;16.65;;;11.40;;
45252;SDS011;63171;50.520;30.486;2022-10-26T03:38:04;17.27;;;10.45;;
45252;SDS011;63171;50.520;30.486;2022-10-26T03:38:55;12.57;;;9.77;;
45252;SDS011;63171;50.520;30.486;2022-10-26T03:39:45;12.63;;;10.52;;
45252;SDS011;63171;50.520;30.486;2022-10-26T03:40:36;10.35;;;9.30;;
45252;SDS011;63171;50.520;30.486;2022-10-26T03:43:06;13.52;;;10.00;;
45252;SDS011;63171;50.520;30.486;2022-10-26T03:43:56;11.10;;;10.00;;
45252;SDS011;63171;50.520;30.486;2022-10-26T03:44:47;17.25;;;10.82;;
45252;SDS011;63171;50.520;30.486;2022-10-26T03:45:37;11.10;;;9.80;;
45252;SDS011;63171;50.520;30.486;2022-10-26T03:46:27;10.40;;;9.38;;
45252;SDS011;63171;50.520;30.486;2022-10-26T03:47:18;11.38;;;9.73;;
45252;SDS011;63171;50.520;30.486;2022-10-26T03:48:08;12.23;;;9.10;;
45252;SDS011;63171;50.520;30.486;2022-10-26T03:49:00;12.40;;;9.88;;
45252;SDS011;63171;50.520;30.486;2022-10-26T03:49:50;12.95;;;9.75;;
45252;SDS011;63171;50.520;30.486;2022-10-26T03:50:41;12.05;;;9.93;;
45252;SDS011;63171;50.520;30.486;2022-10-26T03:51:30;17.77;;;9.98;;
45252;SDS011;63171;50.520;30.486;2022-10-26T03:52:21;11.05;;;9.80;;
45252;SDS011;63171;50.520;30.486;2022-10-26T03:53:12;10.95;;;9.68;;
45252;SDS011;63171;50.520;30.486;2022-10-26T03:54:03;12.30;;;10.20;;
45252;SDS011;63171;50.520;30.486;2022-10-26T03:54:54;10.05;;;9.05;;
45252;SDS011;63171;50.520;30.486;2022-10-26T03:55:43;12.38;;;9.38;;
45252;SDS011;63171;50.520;30.486;2022-10-26T03:56:34;11.43;;;10.32;;
45252;SDS011;63171;50.520;30.486;2022-10-26T03:57:24;10.70;;;9.77;;
45252;SDS011;63171;50.520;30.486;2022-10-26T03:58:15;11.55;;;10.35;;
45252;SDS011;63171;50.520;30.486;2022-10-26T03:59:04;11.57;;;10.38;;
45252;SDS011;63171;50.520;30.486;2022-10-26T03:59:55;10.27;;;9.27;;
45252;SDS011;63171;50.520;30.486;2022-10-26T04:00:45;11.80;;;9.95;;
45252;SDS011;63171;50.520;30.486;2022-10-26T04:01:36;11.50;;;9.38;;
45252;SDS011;63171;50.520;30.486;2022-10-26T04:02:26;11.60;;;10.50;;
45252;SDS011;63171;50.520;30.486;2022-10-26T04:03:16;13.55;;;10.02;;
45252;SDS011;63171;50.520;30.486;2022-10-26T04:04:08;11.13;;;9.20;;
45252;SDS011;63171;50.520;30.486;2022-10-26T04:04:58;13.60;;;10.23;;
45252;SDS011;63171;50.520;30.486;2022-10-26T04:05:49;15.60;;;10.30;;
45252;SDS011;63171;50.520;30.486;2022-10-26T04:06:39;10.45;;;8.75;;
45252;SDS011;63171;50.520;30.486;2022-10-26T04:07:30;14.02;;;10.63;;
45252;SDS011;63171;50.520;30.486;2022-10-26T04:08:19;13.23;;;10.05;;
45252;SDS011;63171;50.520;30.486;2022-10-26T04:09:10;11.00;;;9.68;;
45252;SDS011;63171;50.520;30.486;2022-10-26T04:10:00;9.82;;;8.93;;
45252;SDS011;63171;50.520;30.486;2022-10-26T04:10:50;9.57;;;8.60;;
45252;SDS011;63171;50.520;30.486;2022-10-26T04:11:40;11.77;;;10.32;;
45252;SDS011;63171;50.520;30.486;2022-10-26T04:12:30;11.52;;;10.07;;
45252;SDS011;63171;50.520;30.486;2022-10-26T04:13:21;10.48;;;9.43;;
45252;SDS011;63171;50.520;30.486;2022-10-26T04:14:11;17.42;;;9.73;;
45252;SDS011;63171;50.520;30.486;2022-10-26T04:15:03;11.75;;;9.45;;
45252;SDS011;63171;50.520;30.486;2022-10-26T04:15:55;10.35;;;9.45;;
45252;SDS011;63171;50.520;30.486;2022-10-26T04:16:46;10.73;;;9.25;;
45252;SDS011;63171;50.520;30.486;2022-10-26T04:17:36;12.98;;;10.20;;
45252;SDS011;63171;50.520;30.486;2022-10-26T04:18:26;10.65;;;9.55;;
45252;SDS011;63171;50.520;30.486;2022-10-26T04:19:18;11.43;;;9.68;;
45252;SDS011;63171;50.520;30.486;2022-10-26T04:20:09;11.95;;;9.98;;
45252;SDS011;63171;50.520;30.486;2022-10-26T04:20:59;11.63;;;10.43;;
45252;SDS011;63171;50.520;30.486;2022-10-26T04:21:50;9.70;;;8.80;;
45252;SDS011;63171;50.520;30.486;2022-10-26T04:22:40;11.88;;;9.88;;
45252;SDS011;63171;50.520;30.486;2022-10-26T04:23:30;12.77;;;8.65;;
45252;SDS011;63171;50.520;30.486;2022-10-26T04:24:20;8.95;;;8.15;;
45252;SDS011;63171;50.520;30.486;2022-10-26T04:25:11;11.35;;;10.13;;
45252;SDS011;63171;50.520;30.486;2022-10-26T04:26:03;10.07;;;9.07;;
45252;SDS011;63171;50.520;30.486;2022-10-26T04:26:53;10.82;;;9.77;;
45252;SDS011;63171;50.520;30.486;2022-10-26T04:27:43;10.52;;;8.90;;
45252;SDS011;63171;50.520;30.486;2022-10-26T04:28:34;11.10;;;10.00;;
45252;SDS011;63171;50.520;30.486;2022-10-26T04:30:15;9.80;;;8.82;;
45252;SDS011;63171;50.520;30.486;2022-10-26T04:31:05;11.68;;;9.77;;
45252;SDS011;63171;50.520;30.486;2022-10-26T04:31:56;11.63;;;9.30;;
45252;SDS011;63171;50.520;30.486;2022-10-26T04:32:46;12.77;;;9.07;;
45252;SDS011;63171;50.520;30.486;2022-10-26T04:33:36;11.70;;;9.93;;
45252;SDS011;63171;50.520;30.486;2022-10-26T04:34:28;11.05;;;9.85;;
45252;SDS011;63171;50.520;30.486;2022-10-26T04:35:19;9.95;;;8.95;;
45252;SDS011;63171;50.520;30.486;2022-10-26T04:36:09;9.10;;;7.82;;
45252;SDS011;63171;50.520;30.486;2022-10-26T04:37:00;10.13;;;8.80;;
45252;SDS011;63171;50.520;30.486;2022-10-26T04:37:50;8.85;;;7.95;;
45252;SDS011;63171;50.520;30.486;2022-10-26T04:38:47;12.23;;;8.52;;
45252;SDS011;63171;50.520;30.486;2022-10-26T04:39:36;9.63;;;8.73;;
45252;SDS011;63171;50.520;30.486;2022-10-26T04:40:28;9.65;;;8.75;;
45252;SDS011;63171;50.520;30.486;2022-10-26T04:41:19;11.65;;;9.15;;
45252;SDS011;63171;50.520;30.486;2022-10-26T04:42:10;9.60;;;8.70;;
45252;SDS011;63171;50.520;30.486;2022-10-26T04:43:00;9.73;;;8.73;;
45252;SDS011;63171;50.520;30.486;2022-10-26T04:43:51;9.10;;;7.55;;
45252;SDS011;63171;50.520;30.486;2022-10-26T04:44:41;9.73;;;8.73;;
45252;SDS011;63171;50.520;30.486;2022-10-26T04:45:32;12.77;;;9.20;;
45252;SDS011;63171;50.520;30.486;2022-10-26T04:46:22;10.00;;;8.90;;
45252;SDS011;63171;50.520;30.486;2022-10-26T04:47:13;10.43;;;9.43;;
45252;SDS011;63171;50.520;30.486;2022-10-26T04:48:04;8.85;;;8.05;;
45252;SDS011;63171;50.520;30.486;2022-10-26T04:48:56;9.60;;;8.63;;
45252;SDS011;63171;50.520;30.486;2022-10-26T04:49:47;10.45;;;8.45;;
45252;SDS011;63171;50.520;30.486;2022-10-26T04:50:38;10.93;;;8.93;;
45252;SDS011;63171;50.520;30.486;2022-10-26T04:51:29;9.32;;;8.43;;
45252;SDS011;63171;50.520;30.486;2022-10-26T04:52:19;9.57;;;8.57;;
45252;SDS011;63171;50.520;30.486;2022-10-26T04:53:09;10.52;;;8.73;;
45252;SDS011;63171;50.520;30.486;2022-10-26T04:54:00;9.05;;;7.93;;
45252;SDS011;63171;50.520;30.486;2022-10-26T04:54:51;11.35;;;8.48;;
45252;SDS011;63171;50.520;30.486;2022-10-26T04:55:42;17.23;;;8.40;;
45252;SDS011;63171;50.520;30.486;2022-10-26T04:56:33;10.27;;;8.65;;
45252;SDS011;63171;50.520;30.486;2022-10-26T04:57:23;9.07;;;8.15;;
45252;SDS011;63171;50.520;30.486;2022-10-26T04:58:14;10.05;;;9.05;;
45252;SDS011;63171;50.520;30.486;2022-10-26T04:59:04;9.93;;;8.27;;
45252;SDS011;63171;50.520;30.486;2022-10-26T04:59:55;13.30;;;8.75;;
45252;SDS011;63171;50.520;30.486;2022-10-26T05:00:44;9.88;;;8.93;;
45252;SDS011;63171;50.520;30.486;2022-10-26T05:01:35;9.75;;;8.77;;
45252;SDS011;63171;50.520;30.486;2022-10-26T05:02:25;10.13;;;9.05;;
45252;SDS011;63171;50.520;30.486;2022-10-26T05:03:16;8.98;;;8.07;;
45252;SDS011;63171;50.520;30.486;2022-10-26T05:04:06;12.65;;;9.20;;
45252;SDS011;63171;50.520;30.486;2022-10-26T05:04:58;9.32;;;8.32;;
45252;SDS011;63171;50.520;30.486;2022-10-26T05:05:49;8.80;;;7.93;;
45252;SDS011;63171;50.520;30.486;2022-10-26T05:06:40;10.85;;;8.57;;
45252;SDS011;63171;50.520;30.486;2022-10-26T05:07:29;10.18;;;9.15;;
45252;SDS011;63171;50.520;30.486;2022-10-26T05:08:21;9.55;;;8.55;;
45252;SDS011;63171;50.520;30.486;2022-10-26T05:09:11;8.50;;;7.70;;
45252;SDS011;63171;50.520;30.486;2022-10-26T05:10:02;9.48;;;8.57;;
45252;SDS011;63171;50.520;30.486;2022-10-26T05:10:53;9.35;;;7.85;;
45252;SDS011;63171;50.520;30.486;2022-10-26T05:11:43;9.85;;;8.48;;
45252;SDS011;63171;50.520;30.486;2022-10-26T05:12:33;10.02;;;9.02;;
45252;SDS011;63171;50.520;30.486;2022-10-26T05:13:24;10.18;;;9.10;;
45252;SDS011;63171;50.520;30.486;2022-10-26T05:14:14;10.63;;;9.10;;
45252;SDS011;63171;50.520;30.486;2022-10-26T05:15:06;15.65;;;11.73;;
45252;SDS011;63171;50.520;30.486;2022-10-26T05:15:57;9.85;;;8.75;;
45252;SDS011;63171;50.520;30.486;2022-10-26T05:16:49;10.35;;;8.27;;
45252;SDS011;63171;50.520;30.486;2022-10-26T05:17:38;11.45;;;8.50;;
45252;SDS011;63171;50.520;30.486;2022-10-26T05:18:29;12.65;;;8.63;;
45252;SDS011;63171;50.520;30.486;2022-10-26T05:19:19;10.85;;;7.53;;
45252;SDS011;63171;50.520;30.486;2022-10-26T05:20:11;14.13;;;9.45;;